createdAt,value
2022-11-29T00:01:25.071Z,33.20
2022-11-29T00:03:52.363Z,32.78
2022-11-29T00:06:24.383Z,38.83
2022-11-29T00:08:50.879Z,36.83
2022-11-29T00:11:44.599Z,34.83
2022-11-29T00:14:13.318Z,33.70
2022-11-29T00:16:40.999Z,35.55
2022-11-29T00:19:12.317Z,34.88
2022-11-29T00:21:38.921Z,35.83
2022-11-29T00:24:05.704Z,33.83
2022-11-29T00:26:32.224Z,35.10
2022-11-29T00:28:58.749Z,33.22
2022-11-29T00:31:30.301Z,34.30
2022-11-29T00:33:57.859Z,32.63
2022-11-29T00:36:24.721Z,33.78
2022-11-29T00:38:51.477Z,33.67
2022-11-29T00:41:18.069Z,32.50
2022-11-29T00:43:44.653Z,34.80
2022-11-29T00:46:11.458Z,31.35
2022-11-29T00:48:37.961Z,34.25
2022-11-29T00:51:05.586Z,33.20
2022-11-29T00:53:33.293Z,33.05
2022-11-29T00:55:59.817Z,32.00
2022-11-29T00:58:26.347Z,33.25
2022-11-29T01:00:53.468Z,32.22
2022-11-29T01:03:20.010Z,36.83
2022-11-29T01:05:46.847Z,34.33
2022-11-29T01:08:13.952Z,36.65
2022-11-29T01:10:41.262Z,39.40
2022-11-29T01:13:08.091Z,35.75
2022-11-29T01:15:34.799Z,33.47
2022-11-29T01:18:01.335Z,35.60
2022-11-29T01:20:27.984Z,35.60
2022-11-29T01:22:54.545Z,34.90
2022-11-29T01:25:21.250Z,33.67
2022-11-29T01:27:47.842Z,37.45
2022-11-29T01:30:15.049Z,35.70
2022-11-29T01:32:41.822Z,33.05
2022-11-29T01:35:08.686Z,32.55
2022-11-29T01:37:35.131Z,37.50
2022-11-29T01:40:01.623Z,34.70
2022-11-29T01:42:28.105Z,35.65
2022-11-29T01:45:10.127Z,34.75
2022-11-29T01:47:38.788Z,33.38
2022-11-29T01:50:05.849Z,36.17
2022-11-29T01:52:32.920Z,33.65
2022-11-29T01:55:02.669Z,34.97
2022-11-29T01:57:29.628Z,34.85
2022-11-29T01:59:58.739Z,34.50
2022-11-29T02:02:31.238Z,34.50
2022-11-29T02:04:59.196Z,33.80
2022-11-29T02:07:25.944Z,36.55
2022-11-29T02:09:52.720Z,34.63
2022-11-29T02:12:25.295Z,35.50
2022-11-29T02:15:10.609Z,36.90
2022-11-29T02:17:52.194Z,35.33
2022-11-29T02:20:51.391Z,36.38
2022-11-29T02:23:36.081Z,36.78
2022-11-29T02:26:02.517Z,40.27
2022-11-29T02:28:47.706Z,40.88
2022-11-29T02:31:51.949Z,42.75
2022-11-29T02:34:36.666Z,41.42
2022-11-29T02:37:51.309Z,42.40
2022-11-29T02:40:33.072Z,41.20
2022-11-29T02:43:29.839Z,39.92
2022-11-29T02:46:12.848Z,37.50
2022-11-29T02:49:14.744Z,44.42
2022-11-29T02:51:58.274Z,46.08
2022-11-29T02:54:30.242Z,41.97
2022-11-29T02:57:18.039Z,43.80
2022-11-29T03:00:00.152Z,42.83
2022-11-29T03:02:36.732Z,45.47
2022-11-29T03:05:09.939Z,41.65
2022-11-29T03:07:57.620Z,41.00
2022-11-29T03:10:43.624Z,38.83
2022-11-29T03:13:22.724Z,39.60
2022-11-29T03:16:28.059Z,37.92
2022-11-29T03:19:00.120Z,39.78
2022-11-29T03:21:39.613Z,38.67
2022-11-29T03:24:11.902Z,36.55
2022-11-29T03:26:42.629Z,35.55
2022-11-29T03:29:21.561Z,38.53
2022-11-29T03:31:54.296Z,35.05
2022-11-29T03:34:37.398Z,36.50
2022-11-29T03:37:12.809Z,38.15
2022-11-29T03:39:52.256Z,36.13
2022-11-29T03:42:26.681Z,34.78
2022-11-29T03:44:57.576Z,35.63
2022-11-29T03:47:29.231Z,36.30
2022-11-29T03:50:14.078Z,38.25
2022-11-29T03:52:50.157Z,41.85
2022-11-29T03:55:49.316Z,36.30
2022-11-29T03:58:38.428Z,38.38
2022-11-29T04:01:34.075Z,36.65
2022-11-29T04:04:37.831Z,37.90
2022-11-29T04:07:13.564Z,36.75
2022-11-29T04:10:04.546Z,37.30
2022-11-29T04:13:06.208Z,37.58
2022-11-29T04:15:51.419Z,39.13
2022-11-29T04:18:50.201Z,38.30
2022-11-29T04:21:47.703Z,38.20
2022-11-29T04:24:45.460Z,41.33
2022-11-29T04:27:33.990Z,41.65
2022-11-29T04:30:08.184Z,40.08
2022-11-29T04:32:52.879Z,43.85
2022-11-29T04:35:48.414Z,39.72
2022-11-29T04:38:47.586Z,39.10
2022-11-29T04:41:24.019Z,41.92
2022-11-29T04:44:03.673Z,41.47
2022-11-29T04:46:51.331Z,39.63
2022-11-29T04:49:25.876Z,42.42
2022-11-29T04:52:16.127Z,40.33
2022-11-29T04:55:04.405Z,40.55
2022-11-29T04:57:37.444Z,40.38
2022-11-29T05:00:06.398Z,39.75
2022-11-29T05:02:51.298Z,38.63
2022-11-29T05:05:24.564Z,41.85
2022-11-29T05:08:19.405Z,40.83
2022-11-29T05:11:05.240Z,40.10
2022-11-29T05:13:40.900Z,45.85
2022-11-29T05:16:13.761Z,40.97
2022-11-29T05:19:11.935Z,44.92
2022-11-29T05:22:00.279Z,44.17
2022-11-29T05:24:33.286Z,52.33
2022-11-29T05:27:16.682Z,62.35
2022-11-29T05:29:55.448Z,49.95
2022-11-29T05:32:21.933Z,50.47
2022-11-29T05:34:57.382Z,50.05
2022-11-29T05:37:49.564Z,49.85
2022-11-29T05:40:25.056Z,63.67
2022-11-29T05:43:18.539Z,60.90
2022-11-29T05:45:55.160Z,74.18
2022-11-29T05:48:26.743Z,55.85
2022-11-29T05:51:05.351Z,50.25
2022-11-29T05:54:07.967Z,67.63
2022-11-29T05:57:01.323Z,79.75
2022-11-29T05:59:29.092Z,47.25
2022-11-29T06:02:17.532Z,47.42
2022-11-29T06:04:46.935Z,44.42
2022-11-29T06:07:22.345Z,56.85
2022-11-29T06:12:21.396Z,58.70
2022-11-29T06:15:15.268Z,46.45
2022-11-29T06:18:04.131Z,46.67
2022-11-29T06:20:43.204Z,52.33
2022-11-29T06:23:51.120Z,55.08
2022-11-29T06:26:29.147Z,51.20
2022-11-29T06:29:19.182Z,51.10
2022-11-29T06:31:50.131Z,46.40
2022-11-29T06:34:33.970Z,55.00
2022-11-29T06:37:23.199Z,50.00
2022-11-29T06:39:50.110Z,42.90
2022-11-29T06:42:16.814Z,43.22
2022-11-29T06:44:44.034Z,49.03
2022-11-29T06:47:17.124Z,51.88
2022-11-29T06:49:46.361Z,54.60
2022-11-29T06:52:39.260Z,67.75
2022-11-29T06:55:15.416Z,52.75
2022-11-29T06:58:09.826Z,62.08
2022-11-29T07:00:58.795Z,60.28
2022-11-29T07:03:34.803Z,51.20
2022-11-29T07:06:08.533Z,94.55
2022-11-29T07:08:35.381Z,42.28
2022-11-29T07:11:02.039Z,48.13
2022-11-29T07:13:28.867Z,46.65
2022-11-29T07:16:14.278Z,46.25
2022-11-29T07:18:51.076Z,47.58
2022-11-29T07:21:29.807Z,56.85
2022-11-29T07:24:27.326Z,58.78
2022-11-29T07:27:18.962Z,57.17
2022-11-29T07:30:05.077Z,56.40
2022-11-29T07:32:51.461Z,60.55
2022-11-29T07:35:50.925Z,101.53
2022-11-29T07:38:24.438Z,63.20
2022-11-29T07:41:12.170Z,54.00
2022-11-29T07:43:46.710Z,71.47
2022-11-29T07:46:13.360Z,54.88
2022-11-29T07:48:40.001Z,59.20
2022-11-29T07:51:06.553Z,66.88
2022-11-29T07:53:37.159Z,83.25
2022-11-29T07:56:03.726Z,73.80
2022-11-29T07:58:30.229Z,147.93
2022-11-29T08:00:56.792Z,60.92
2022-11-29T08:03:23.442Z,87.43
2022-11-29T08:05:50.018Z,76.78
2022-11-29T08:08:16.499Z,82.38
2022-11-29T08:10:43.406Z,72.10
2022-11-29T08:13:10.125Z,78.13
2022-11-29T08:15:36.955Z,99.65
2022-11-29T08:18:03.759Z,82.38
2022-11-29T08:20:30.337Z,146.95
2022-11-29T08:22:58.610Z,102.45
2022-11-29T08:25:26.261Z,109.35
2022-11-29T08:27:53.017Z,116.13
2022-11-29T08:30:22.307Z,61.40
2022-11-29T08:32:51.913Z,112.15
2022-11-29T08:35:23.113Z,113.40
2022-11-29T08:37:50.505Z,90.95
2022-11-29T08:40:17.314Z,72.72
2022-11-29T08:42:43.796Z,152.25
2022-11-29T08:45:11.069Z,84.47
2022-11-29T08:47:38.902Z,82.35
2022-11-29T08:50:12.442Z,139.77
2022-11-29T08:52:59.494Z,94.28
2022-11-29T08:55:28.250Z,123.13
2022-11-29T08:58:01.273Z,97.30
2022-11-29T09:00:27.785Z,122.63
2022-11-29T09:02:54.293Z,71.05
2022-11-29T09:05:20.810Z,103.30
2022-11-29T09:07:47.444Z,118.60
2022-11-29T09:10:14.112Z,152.18
2022-11-29T09:12:40.804Z,120.63
2022-11-29T09:15:09.675Z,69.85
2022-11-29T09:17:36.449Z,101.63
2022-11-29T09:20:04.266Z,86.75
2022-11-29T09:22:31.306Z,118.90
2022-11-29T09:24:57.817Z,91.82
2022-11-29T09:27:24.299Z,83.18
2022-11-29T09:29:50.860Z,78.68
2022-11-29T09:32:17.388Z,65.30
2022-11-29T09:34:44.090Z,81.55
2022-11-29T09:37:10.923Z,77.32
2022-11-29T09:39:38.185Z,70.80
2022-11-29T09:42:42.884Z,69.95
2022-11-29T09:45:11.668Z,65.88
2022-11-29T09:48:23.128Z,86.60
2022-11-29T09:50:54.318Z,103.65
2022-11-29T09:53:23.937Z,122.35
2022-11-29T09:56:23.412Z,90.80
2022-11-29T09:59:01.512Z,110.90
2022-11-29T10:01:31.468Z,61.53
2022-11-29T10:04:04.281Z,81.47
2022-11-29T10:06:38.969Z,72.65
2022-11-29T10:09:16.703Z,129.30
2022-11-29T10:12:14.234Z,88.80
2022-11-29T10:14:46.057Z,69.47
2022-11-29T10:17:16.680Z,61.28
2022-11-29T10:19:47.575Z,86.15
2022-11-29T10:22:20.017Z,137.32
2022-11-29T10:24:50.267Z,101.93
2022-11-29T10:27:23.801Z,76.93
2022-11-29T10:29:53.374Z,44.58
2022-11-29T10:32:21.425Z,141.88
2022-11-29T10:34:49.061Z,140.38
2022-11-29T10:37:20.795Z,47.78
2022-11-29T10:39:51.265Z,85.45
2022-11-29T10:42:47.179Z,47.45
2022-11-29T10:45:35.583Z,55.78
2022-11-29T10:48:05.035Z,65.18
2022-11-29T10:50:34.873Z,55.05
2022-11-29T10:53:07.287Z,53.72
2022-11-29T10:55:43.632Z,57.17
2022-11-29T10:58:27.944Z,70.10
2022-11-29T11:01:06.816Z,46.70
2022-11-29T11:03:40.145Z,59.38
2022-11-29T11:06:19.082Z,70.78
2022-11-29T11:08:52.165Z,47.05
2022-11-29T11:11:29.718Z,59.75
2022-11-29T11:14:06.072Z,42.95
2022-11-29T11:16:37.366Z,42.80
2022-11-29T11:19:30.042Z,44.05
2022-11-29T11:22:03.550Z,38.22
2022-11-29T11:24:32.342Z,45.67
2022-11-29T11:26:59.419Z,41.08
2022-11-29T11:29:36.406Z,45.00
2022-11-29T11:32:03.684Z,43.33
2022-11-29T11:34:30.390Z,43.63
2022-11-29T11:37:15.036Z,42.25
2022-11-29T11:39:43.205Z,46.50
2022-11-29T11:42:33.844Z,45.90
2022-11-29T11:45:01.176Z,45.97
2022-11-29T11:47:29.625Z,34.15
2022-11-29T11:50:07.909Z,32.75
2022-11-29T11:52:40.209Z,38.63
2022-11-29T11:55:32.186Z,42.92
2022-11-29T11:58:11.955Z,47.88
2022-11-29T12:01:05.506Z,45.90
2022-11-29T12:04:18.053Z,40.88
2022-11-29T12:06:58.922Z,44.50
2022-11-29T12:09:37.672Z,41.25
2022-11-29T12:12:19.385Z,39.70
2022-11-29T12:15:27.848Z,46.38
2022-11-29T12:18:09.776Z,41.03
2022-11-29T12:20:58.599Z,45.05
2022-11-29T12:23:39.125Z,43.08
2022-11-29T12:26:10.668Z,40.92
2022-11-29T12:28:40.247Z,49.42
2022-11-29T12:31:35.204Z,51.53
2022-11-29T12:34:22.553Z,55.63
2022-11-29T12:36:52.200Z,54.45
2022-11-29T12:39:46.612Z,56.88
2022-11-29T12:42:19.357Z,54.35
2022-11-29T12:44:54.756Z,54.15
2022-11-29T12:47:36.758Z,55.80
2022-11-29T12:50:08.133Z,66.90
2022-11-29T12:52:48.133Z,62.75
2022-11-29T12:55:29.301Z,65.75
2022-11-29T12:58:08.554Z,60.20
2022-11-29T13:00:56.516Z,60.25
2022-11-29T13:03:34.216Z,58.00
2022-11-29T13:06:07.837Z,60.70
2022-11-29T13:08:49.771Z,68.93
2022-11-29T13:11:59.212Z,72.45
2022-11-29T13:14:43.360Z,68.85
2022-11-29T13:17:42.396Z,71.30
2022-11-29T13:20:23.560Z,68.63
2022-11-29T13:23:05.517Z,76.03
2022-11-29T13:25:41.336Z,70.18
2022-11-29T13:28:17.692Z,61.60
2022-11-29T13:30:44.555Z,55.50
2022-11-29T13:33:20.194Z,52.65
2022-11-29T13:36:15.977Z,47.80
2022-11-29T13:38:55.236Z,45.10
2022-11-29T13:41:33.836Z,45.00
2022-11-29T13:44:17.232Z,42.10
2022-11-29T13:46:50.031Z,32.22
2022-11-29T13:49:22.430Z,34.03
2022-11-29T13:51:49.681Z,30.75
2022-11-29T13:54:31.315Z,27.77
2022-11-29T13:57:03.763Z,24.10
2022-11-29T13:59:32.684Z,24.67
2022-11-29T14:01:59.373Z,23.73
2022-11-29T14:04:36.963Z,25.88
2022-11-29T14:07:04.780Z,27.33
2022-11-29T14:10:04.690Z,27.98
2022-11-29T14:12:38.381Z,31.08
2022-11-29T14:15:11.111Z,30.38
2022-11-29T14:17:52.972Z,31.52
2022-11-29T14:20:22.496Z,33.65
2022-11-29T14:23:04.294Z,33.35
2022-11-29T14:26:01.352Z,32.38
2022-11-29T14:28:33.557Z,34.25
2022-11-29T14:31:04.821Z,33.20
2022-11-29T14:33:46.441Z,35.58
2022-11-29T14:36:18.783Z,34.58
2022-11-29T14:38:51.401Z,36.70
2022-11-29T14:41:31.084Z,35.08
2022-11-29T14:44:17.073Z,33.75
2022-11-29T14:46:44.591Z,29.10
2022-11-29T14:49:21.986Z,25.20
2022-11-29T14:52:12.913Z,29.10
2022-11-29T14:54:59.448Z,20.85
2022-11-29T14:57:58.442Z,19.88
2022-11-29T15:00:43.811Z,21.33
2022-11-29T15:03:15.861Z,19.20
2022-11-29T15:05:48.990Z,21.38
2022-11-29T15:08:26.963Z,19.25
2022-11-29T15:11:01.405Z,21.17
2022-11-29T15:13:31.330Z,20.02
2022-11-29T15:16:08.869Z,23.13
2022-11-29T15:19:03.969Z,22.55
2022-11-29T15:21:45.713Z,23.95
2022-11-29T15:24:14.732Z,25.08
2022-11-29T15:27:01.381Z,24.52
2022-11-29T15:29:29.345Z,25.67
2022-11-29T15:31:58.033Z,25.45
2022-11-29T15:34:40.221Z,27.77
2022-11-29T15:37:06.891Z,27.83
2022-11-29T15:39:36.071Z,29.50
2022-11-29T15:42:13.484Z,28.02
2022-11-29T15:44:48.928Z,27.95
2022-11-29T15:47:26.364Z,29.10
2022-11-29T15:49:54.265Z,30.10
2022-11-29T15:52:26.814Z,29.83
2022-11-29T15:55:01.161Z,27.10
2022-11-29T15:57:32.530Z,30.23
2022-11-29T16:00:01.791Z,28.98
2022-11-29T16:02:30.953Z,31.20
2022-11-29T16:05:00.706Z,31.67
2022-11-29T16:07:32.215Z,30.90
2022-11-29T16:10:14.183Z,30.23
2022-11-29T16:12:54.318Z,31.80
2022-11-29T16:15:39.398Z,30.67
2022-11-29T16:18:12.321Z,32.13
2022-11-29T16:20:39.348Z,31.38
2022-11-29T16:23:11.565Z,34.60
2022-11-29T16:25:59.364Z,45.22
2022-11-29T16:28:33.249Z,47.83
2022-11-29T16:31:00.153Z,83.05
2022-11-29T16:33:27.161Z,59.80
2022-11-29T16:36:12.081Z,40.00
2022-11-29T16:38:44.780Z,37.35
2022-11-29T16:41:24.904Z,37.38
2022-11-29T16:43:56.163Z,36.85
2022-11-29T16:46:22.675Z,33.45
2022-11-29T16:48:49.985Z,35.42
2022-11-29T16:51:18.264Z,34.17
2022-11-29T16:53:51.113Z,33.03
2022-11-29T16:56:20.567Z,33.35
2022-11-29T16:59:17.108Z,28.80
2022-11-29T17:01:47.069Z,27.40
2022-11-29T17:04:13.629Z,29.98
2022-11-29T17:06:50.714Z,30.45
2022-11-29T17:09:26.543Z,29.70
2022-11-29T17:11:54.040Z,31.67
2022-11-29T17:14:20.551Z,33.25
2022-11-29T17:16:50.387Z,31.35
2022-11-29T17:19:18.601Z,34.90
2022-11-29T17:21:45.409Z,33.88
2022-11-29T17:24:14.972Z,32.97
2022-11-29T17:26:42.740Z,32.80
2022-11-29T17:29:13.819Z,32.47
2022-11-29T17:31:41.531Z,35.47
2022-11-29T17:34:08.403Z,36.03
2022-11-29T17:36:35.199Z,34.47
2022-11-29T17:39:02.578Z,43.80
2022-11-29T17:41:29.525Z,345.20
2022-11-29T17:43:57.107Z,309.15
2022-11-29T17:46:26.423Z,172.00
2022-11-29T17:48:53.786Z,113.35
2022-11-29T17:51:50.561Z,76.18
2022-11-29T17:54:09.894Z,64.05
2022-11-29T17:56:36.584Z,53.75
2022-11-29T17:59:04.120Z,46.15
2022-11-29T18:01:36.094Z,48.55
2022-11-29T18:04:05.142Z,49.63
2022-11-29T18:06:36.192Z,52.03
2022-11-29T18:09:04.780Z,53.97
2022-11-29T18:11:41.662Z,50.45
2022-11-29T18:14:12.613Z,50.97
2022-11-29T18:16:39.638Z,47.05
2022-11-29T18:19:08.662Z,52.63
2022-11-29T18:21:35.689Z,51.80
2022-11-29T18:24:03.762Z,50.30
2022-11-29T18:26:31.410Z,48.08
2022-11-29T18:28:58.647Z,41.88
2022-11-29T18:31:28.302Z,43.42
2022-11-29T18:34:00.072Z,37.65
2022-11-29T18:36:29.273Z,58.50
2022-11-29T18:39:00.816Z,42.42
2022-11-29T18:41:29.166Z,51.50
2022-11-29T18:44:01.564Z,45.83
2022-11-29T18:46:36.776Z,40.55
2022-11-29T18:51:31.365Z,41.90
2022-11-29T18:53:58.516Z,64.07
2022-11-29T18:56:27.484Z,52.35
2022-11-29T18:58:58.338Z,78.07
2022-11-29T19:01:27.529Z,54.30
2022-11-29T19:03:55.689Z,50.85
2022-11-29T19:06:38.640Z,51.45
2022-11-29T19:09:07.138Z,73.20
2022-11-29T19:11:34.388Z,58.10
2022-11-29T19:14:03.896Z,61.47
2022-11-29T19:16:33.265Z,69.22
2022-11-29T19:19:01.025Z,59.13
2022-11-29T19:21:29.495Z,50.65
2022-11-29T19:23:57.868Z,49.38
2022-11-29T19:26:26.659Z,46.25
2022-11-29T19:28:53.656Z,51.63
2022-11-29T19:31:23.905Z,56.00
2022-11-29T19:33:52.692Z,54.65
2022-11-29T19:36:30.253Z,59.97
2022-11-29T19:38:57.824Z,54.30
2022-11-29T19:41:25.518Z,61.20
2022-11-29T19:43:54.071Z,54.33
2022-11-29T19:46:22.985Z,62.53
2022-11-29T19:48:49.622Z,54.30
2022-11-29T19:51:18.938Z,57.40
2022-11-29T19:53:46.366Z,55.80
2022-11-29T19:56:16.910Z,61.25
2022-11-29T19:58:44.234Z,55.05
2022-11-29T20:01:13.232Z,71.13
2022-11-29T20:03:40.537Z,78.85
2022-11-29T20:06:07.844Z,65.97
2022-11-29T20:08:34.929Z,78.72
2022-11-29T20:11:07.915Z,92.40
2022-11-29T20:13:34.640Z,80.45
2022-11-29T20:16:03.340Z,93.43
2022-11-29T20:18:33.666Z,81.80
2022-11-29T20:21:07.819Z,74.90
2022-11-29T20:23:34.374Z,94.55
2022-11-29T20:26:01.308Z,74.55
2022-11-29T20:28:28.223Z,68.82
2022-11-29T20:30:55.170Z,54.85
2022-11-29T20:33:23.832Z,56.28
2022-11-29T20:35:56.377Z,54.28
2022-11-29T20:38:52.160Z,49.03
2022-11-29T20:41:40.300Z,47.15
2022-11-29T20:44:09.952Z,46.28
2022-11-29T20:46:36.756Z,52.72
2022-11-29T20:49:06.714Z,43.10
2022-11-29T20:51:41.148Z,44.75
2022-11-29T20:54:10.456Z,76.55
2022-11-29T20:56:36.982Z,95.75
2022-11-29T20:59:03.467Z,74.95
2022-11-29T21:01:30.147Z,51.58
2022-11-29T21:03:56.736Z,49.22
2022-11-29T21:06:23.251Z,55.55
2022-11-29T21:08:51.120Z,56.72
2022-11-29T21:11:17.980Z,46.70
2022-11-29T21:13:45.087Z,46.25
2022-11-29T21:16:12.914Z,45.05
2022-11-29T21:18:39.844Z,47.30
2022-11-29T21:21:20.176Z,53.50
2022-11-29T21:24:11.867Z,43.70
2022-11-29T21:26:42.536Z,51.60
2022-11-29T21:29:19.452Z,54.35
2022-11-29T21:31:47.312Z,48.05
2022-11-29T21:34:13.972Z,48.00
2022-11-29T21:36:40.930Z,43.53
2022-11-29T21:39:09.535Z,46.53
2022-11-29T21:41:36.465Z,45.40
2022-11-29T21:44:07.771Z,48.33
2022-11-29T21:46:35.214Z,42.83
2022-11-29T21:49:01.813Z,49.15
2022-11-29T21:51:28.304Z,44.75
2022-11-29T21:53:54.912Z,43.72
2022-11-29T21:56:21.469Z,43.90
2022-11-29T21:58:47.978Z,44.92
2022-11-29T22:01:19.638Z,40.30
2022-11-29T22:03:46.217Z,41.88
2022-11-29T22:06:16.405Z,44.28
2022-11-29T22:08:42.953Z,45.20
2022-11-29T22:11:11.746Z,48.50
2022-11-29T22:13:58.142Z,46.88
2022-11-29T22:16:25.049Z,48.78
2022-11-29T22:18:51.698Z,48.45
2022-11-29T22:21:18.221Z,49.50
2022-11-29T22:23:44.720Z,48.13
2022-11-29T22:26:12.028Z,44.05
2022-11-29T22:28:38.884Z,41.58
2022-11-29T22:31:07.244Z,44.08
2022-11-29T22:33:34.392Z,39.38
2022-11-29T22:36:07.046Z,37.10
2022-11-29T22:38:33.828Z,37.70
2022-11-29T22:41:05.292Z,39.08
2022-11-29T22:43:32.863Z,32.40
2022-11-29T22:46:12.886Z,36.28
2022-11-29T22:48:40.377Z,34.05
2022-11-29T22:51:09.102Z,37.00
2022-11-29T22:53:36.599Z,32.85
2022-11-29T22:56:05.086Z,35.53
2022-11-29T22:58:31.974Z,33.63
2022-11-29T23:01:19.068Z,34.67
2022-11-29T23:03:49.133Z,31.38
2022-11-29T23:06:17.531Z,32.65
2022-11-29T23:08:45.598Z,34.15
2022-11-29T23:11:14.804Z,33.22
2022-11-29T23:13:42.685Z,32.90
2022-11-29T23:16:13.925Z,32.45
2022-11-29T23:18:42.297Z,35.53
2022-11-29T23:21:14.406Z,33.70
2022-11-29T23:23:41.337Z,37.53
2022-11-29T23:26:09.055Z,36.83
2022-11-29T23:28:36.126Z,36.45
2022-11-29T23:31:02.620Z,34.45
2022-11-29T23:33:29.270Z,34.35
2022-11-29T23:36:06.386Z,36.10
2022-11-29T23:38:33.432Z,35.00
2022-11-29T23:40:59.988Z,32.72
2022-11-29T23:43:34.713Z,35.45
2022-11-29T23:46:09.780Z,32.63
2022-11-29T23:48:36.394Z,31.35
2022-11-29T23:51:02.922Z,31.63
2022-11-29T23:53:29.563Z,33.20
2022-11-29T23:56:00.504Z,32.05
2022-11-29T23:58:28.137Z,34.97
